Time;durP1;ratioP1;P1;durP2;ratioP2;P2;SDS_P1;SDS_P2;PMS_P1;PMS_P2;Temp;Humidity;BMP_temperature;BMP_pressure;BME280_temperature;BME280_humidity;BME280_pressure;Samples;Min_cycle;Max_cycle;Signal;HPM_P1;HPM_P2
2022/01/12 00:02:20;;;;;;;11.23;6.93;;;;;;;3.35;52.82;100889.72;5058789;28;20224;-66
2022/01/12 00:04:46;;;;;;;8.00;6.60;;;;;;;3.09;53.70;100895.78;5057134;28;20798;-66
2022/01/12 00:07:13;;;;;;;7.73;6.20;;;;;;;2.95;53.88;100891.31;5051591;28;20230;-66
2022/01/12 00:09:40;;;;;;;8.47;6.77;;;;;;;3.34;52.85;100885.41;5057187;28;20233;-66
2022/01/12 00:12:08;;;;;;;8.07;6.70;;;;;;;2.96;54.04;100893.03;5059614;28;20227;-66
2022/01/12 00:14:35;;;;;;;7.80;6.50;;;;;;;3.09;53.35;100896.59;5060582;28;20230;-66
2022/01/12 00:17:03;;;;;;;7.30;6.50;;;;;;;2.90;54.21;100886.38;5059801;28;20220;-66
2022/01/12 00:19:30;;;;;;;7.80;6.47;;;;;;;2.85;54.56;100897.19;5057313;28;20293;-66
2022/01/12 00:21:57;;;;;;;8.87;6.33;;;;;;;2.94;53.49;100860.66;5061105;28;20646;-66
2022/01/12 00:24:28;;;;;;;7.37;6.20;;;;;;;2.85;54.58;100888.44;5055837;28;20221;-67
2022/01/12 00:35:14;;;;;;;8.43;6.70;;;;;;;2.76;54.66;100878.44;5063628;28;20617;-66
2022/01/12 00:37:41;;;;;;;6.93;6.23;;;;;;;2.40;54.88;100858.66;5055417;28;20623;-67
2022/01/12 00:40:08;;;;;;;9.53;7.13;;;;;;;3.23;53.60;100877.28;5058021;28;20224;-67
2022/01/12 00:42:35;;;;;;;7.83;6.13;;;;;;;2.46;54.25;100842.47;5060977;28;20251;-66
2022/01/12 00:45:04;;;;;;;9.60;7.07;;;;;;;2.59;54.58;100846.06;5061860;28;20232;-67
2022/01/12 00:47:31;;;;;;;6.93;6.07;;;;;;;2.31;55.09;100841.63;5062202;28;20222;-67
2022/01/12 00:49:58;;;;;;;8.57;6.80;;;;;;;2.64;55.10;100869.50;5058184;28;20225;-67
2022/01/12 00:52:25;;;;;;;8.27;6.73;;;;;;;2.87;53.85;100857.56;5041571;28;20229;-66
2022/01/12 00:54:52;;;;;;;8.63;7.00;;;;;;;2.74;54.19;100880.34;5062029;28;20229;-67
2022/01/12 00:57:19;;;;;;;8.47;7.00;;;;;;;3.35;52.87;100879.16;5059888;28;20240;-66
2022/01/12 00:59:46;;;;;;;8.87;6.80;;;;;;;3.20;52.75;100859.00;5064006;28;20224;-66
2022/01/12 01:02:13;;;;;;;7.47;6.27;;;;;;;3.18;52.42;100847.72;5057382;28;20228;-66
2022/01/12 01:04:40;;;;;;;8.23;6.57;;;;;;;2.85;53.17;100846.28;5046701;28;20234;-66
2022/01/12 01:07:07;;;;;;;8.33;6.47;;;;;;;2.24;54.29;100820.09;5066507;28;20240;-66
2022/01/12 01:09:38;;;;;;;7.97;6.60;;;;;;;2.12;55.14;100852.38;5059142;28;20223;-66
2022/01/12 01:12:06;;;;;;;7.93;6.27;;;;;;;2.27;54.99;100867.28;5063409;28;20243;-66
2022/01/12 01:14:46;;;;;;;9.90;6.90;;;;;;;1.72;54.67;100816.09;5053041;28;20238;-67
2022/01/12 01:25:32;;;;;;;9.40;7.37;;;;;;;2.63;54.20;100881.84;5061605;28;20233;-67
2022/01/12 01:28:00;;;;;;;8.60;7.37;;;;;;;2.86;53.48;100877.81;5065774;28;20731;-66
2022/01/12 01:30:28;;;;;;;9.27;7.17;;;;;;;2.87;53.17;100862.81;5046460;28;20228;-66
2022/01/12 01:32:57;;;;;;;8.83;6.60;;;;;;;2.44;53.94;100863.66;5056771;28;20222;-67
2022/01/12 01:35:27;;;;;;;9.97;6.77;;;;;;;2.73;53.79;100899.69;5060426;28;20223;-67
2022/01/12 01:37:54;;;;;;;7.07;6.30;;;;;;;2.62;54.43;100922.28;5065913;28;20576;-66
2022/01/12 01:40:21;;;;;;;8.47;6.60;;;;;;;3.18;52.97;100908.38;5061201;28;20223;-66
2022/01/12 01:53:42;;;;;;;10.27;7.53;;;;;;;3.24;52.41;100900.09;5056533;28;20225;-67
2022/01/12 01:56:10;;;;;;;8.60;7.00;;;;;;;2.04;55.49;100894.97;5062694;28;20899;-67
2022/01/12 01:58:37;;;;;;;11.57;6.83;;;;;;;1.42;56.79;100863.34;5060543;28;20229;-66
2022/01/12 02:01:05;;;;;;;9.43;6.83;;;;;;;1.28;57.84;100886.91;5059561;28;20789;-67
2022/01/12 02:03:32;;;;;;;8.73;7.03;;;;;;;0.44;59.03;100812.53;5057493;28;20583;-66
2022/01/12 02:06:00;;;;;;;8.73;6.87;;;;;;;-0.64;62.48;100737.59;5058146;28;20760;-67
2022/01/12 02:08:27;;;;;;;9.90;7.47;;;;;;;-0.45;62.78;100805.72;5059691;28;20228;-66
2022/01/12 02:10:56;;;;;;;9.10;7.00;;;;;;;-0.40;62.20;100807.16;5061312;28;20734;-66
2022/01/12 02:13:24;;;;;;;10.37;7.63;;;;;;;1.14;59.34;100941.06;5058506;28;20232;-67
2022/01/12 02:15:53;;;;;;;9.97;7.47;;;;;;;0.83;59.50;100924.31;5062235;28;20230;-67
2022/01/12 02:40:35;;;;;;;11.00;9.10;;;;;;;2.33;54.68;100860.81;5058995;28;20225;-67
2022/01/12 03:02:40;;;;;;;11.93;8.73;;;;;;;2.50;54.65;100913.31;5039839;28;20696;-67
2022/01/12 03:07:40;;;;;;;12.10;9.40;;;;;;;1.54;56.12;100873.22;5065403;28;20233;-66
2022/01/12 03:10:09;;;;;;;14.53;9.47;;;;;;;1.45;56.86;100878.13;5064449;28;20598;-67
2022/01/12 03:12:37;;;;;;;11.90;8.93;;;;;;;1.49;57.38;100900.72;5065548;28;20230;-67
2022/01/12 03:15:05;;;;;;;12.07;9.13;;;;;;;1.72;56.50;100900.28;5065341;28;20262;-66
2022/01/12 03:17:34;;;;;;;11.57;9.23;;;;;;;1.34;57.50;100884.78;5066199;28;20222;-66
2022/01/12 03:20:06;;;;;;;11.23;9.37;;;;;;;0.51;59.90;100849.81;5048437;28;20225;-66
2022/01/12 03:22:33;;;;;;;13.20;9.07;;;;;;;2.22;55.78;100915.88;5065266;28;20578;-66
2022/01/12 03:25:00;;;;;;;9.77;7.73;;;;;;;2.57;54.23;100884.81;5065585;28;20612;-66
2022/01/12 03:27:29;;;;;;;10.30;7.50;;;;;;;1.55;56.46;100855.66;5065286;28;20238;-66
2022/01/12 03:29:57;;;;;;;8.93;7.50;;;;;;;2.20;55.45;100900.16;5065955;28;20222;-66
2022/01/12 03:32:36;;;;;;;12.73;9.00;;;;;;;1.84;56.16;100880.31;5056868;28;20226;-66
2022/01/12 03:35:11;;;;;;;11.93;8.70;;;;;;;1.86;55.63;100874.97;5065521;28;20242;-66
2022/01/12 03:38:19;;;;;;;11.70;7.70;;;;;;;2.11;54.96;100877.88;5062694;28;20240;-66
2022/01/12 03:40:31;;;;;;;11.57;8.00;;;;;;;1.93;55.92;100879.75;5063411;28;20216;-66
2022/01/12 03:42:58;;;;;;;10.37;7.83;;;;;;;1.43;55.86;100827.41;5064870;28;20661;-66
2022/01/12 03:53:00;;;;;;;9.27;7.33;;;;;;;1.82;55.44;100866.41;5068387;28;21398;-66
2022/01/12 03:55:27;;;;;;;11.33;8.43;;;;;;;0.96;57.07;100823.81;5068370;28;20236;-66
2022/01/12 03:57:54;;;;;;;14.80;8.70;;;;;;;1.10;58.12;100887.00;5074798;28;20731;-66
2022/01/12 04:00:21;;;;;;;10.27;8.70;;;;;;;2.16;55.21;100893.41;5056418;28;20228;-66
2022/01/12 04:02:48;;;;;;;10.60;8.50;;;;;;;2.36;54.47;100886.09;5060672;28;20230;-66
2022/01/12 04:08:20;;;;;;;11.87;8.43;;;;;;;1.89;55.61;100899.31;5069174;28;20230;-66
2022/01/12 04:10:55;;;;;;;13.33;9.53;;;;;;;1.65;56.31;100898.94;5040533;28;20670;-66
2022/01/12 04:13:23;;;;;;;13.47;9.87;;;;;;;1.38;57.23;100891.59;5068285;28;20869;-66
2022/01/12 04:15:53;;;;;;;11.87;8.70;;;;;;;1.59;56.26;100886.09;5068982;28;20235;-66
2022/01/12 04:18:20;;;;;;;12.13;9.07;;;;;;;1.79;56.09;100882.34;5050049;28;20245;-66
2022/01/12 04:20:49;;;;;;;9.93;8.00;;;;;;;1.34;56.65;100849.78;5051095;28;20229;-66
2022/01/12 04:23:19;;;;;;;11.53;8.23;;;;;;;1.99;55.33;100885.63;5068094;28;20810;-66
2022/01/12 04:25:58;;;;;;;11.93;8.60;;;;;;;2.15;55.53;100904.84;5059344;28;20220;-66
2022/01/12 04:28:29;;;;;;;12.33;8.63;;;;;;;2.12;55.50;100899.75;5067719;28;20226;-66
2022/01/12 04:30:57;;;;;;;12.90;8.80;;;;;;;2.40;54.27;100890.25;5063368;28;20221;-66
2022/01/12 04:33:25;;;;;;;12.90;9.60;;;;;;;1.88;55.21;100878.34;5065005;28;20232;-66
2022/01/12 04:35:54;;;;;;;12.77;9.43;;;;;;;0.94;58.28;100872.97;5066965;28;20818;-67
2022/01/12 04:38:27;;;;;;;11.23;9.23;;;;;;;1.75;56.36;100922.91;5067255;28;20219;-67
2022/01/12 04:40:54;;;;;;;12.37;9.43;;;;;;;1.85;55.87;100910.94;5060013;28;20224;-68
2022/01/12 04:43:23;;;;;;;11.10;8.73;;;;;;;2.03;55.43;100932.72;5062484;28;20224;-70
2022/01/12 04:50:52;;;;;;;10.63;8.30;;;;;;;1.07;57.53;100920.47;5063168;28;20238;-69
2022/01/12 04:53:20;;;;;;;12.30;8.63;;;;;;;1.33;57.27;100934.81;5061274;28;20724;-69
2022/01/12 04:55:49;;;;;;;12.63;8.53;;;;;;;1.04;57.78;100915.38;5063149;28;20219;-67
2022/01/12 04:58:17;;;;;;;14.90;8.77;;;;;;;0.68;58.27;100908.50;5044085;28;20223;-66
2022/01/12 05:00:45;;;;;;;12.80;8.90;;;;;;;1.02;57.87;100937.31;5066156;28;20226;-67
2022/01/12 05:13:59;;;;;;;11.37;8.70;;;;;;;0.86;57.75;100907.53;5066318;28;20230;-66
2022/01/12 05:16:27;;;;;;;12.13;8.60;;;;;;;1.20;57.92;100948.63;5066971;28;20231;-66
2022/01/12 05:18:55;;;;;;;13.90;9.17;;;;;;;0.77;59.26;100940.38;5067461;28;20219;-67
2022/01/12 05:21:24;;;;;;;11.40;7.83;;;;;;;1.12;57.83;100942.09;5049949;28;20224;-67
2022/01/12 05:23:51;;;;;;;15.43;8.90;;;;;;;1.39;57.02;100959.00;5066865;28;20216;-66
2022/01/12 05:26:18;;;;;;;13.17;9.10;;;;;;;1.00;57.88;100952.31;5066416;28;20234;-66
2022/01/12 05:28:45;;;;;;;12.37;9.33;;;;;;;1.20;57.42;100951.28;5050217;28;20760;-66
2022/01/12 05:31:13;;;;;;;11.93;8.53;;;;;;;0.55;58.84;100934.53;5059381;28;20227;-66
2022/01/12 05:33:47;;;;;;;11.30;8.83;;;;;;;1.24;57.31;100961.63;5066386;28;20227;-67
2022/01/12 05:36:16;;;;;;;15.73;9.03;;;;;;;0.75;58.77;100957.16;5066498;28;20232;-65
2022/01/12 05:38:44;;;;;;;10.83;8.30;;;;;;;0.82;58.07;100962.03;5057812;28;20790;-67
2022/01/12 05:41:11;;;;;;;11.07;8.80;;;;;;;0.70;58.38;100949.50;5066027;28;20585;-66
2022/01/12 05:43:40;;;;;;;12.60;9.00;;;;;;;1.28;57.88;100997.31;5048002;28;20247;-67
2022/01/12 05:46:13;;;;;;;12.23;8.70;;;;;;;0.25;58.49;100891.41;5066501;28;20227;-67
2022/01/12 05:51:29;;;;;;;11.10;8.23;;;;;;;0.91;58.78;100968.56;5066804;28;20261;-66
2022/01/12 05:53:56;;;;;;;12.97;8.60;;;;;;;0.24;58.73;100883.59;5048431;28;20737;-67
2022/01/12 05:56:24;;;;;;;12.10;8.73;;;;;;;1.43;57.39;100977.28;5066420;28;20233;-66
2022/01/12 05:58:52;;;;;;;10.30;8.37;;;;;;;1.23;56.69;100946.78;5066662;28;20216;-67
2022/01/12 06:01:19;;;;;;;12.23;9.07;;;;;;;0.42;57.96;100881.78;5058737;28;20230;-66
2022/01/12 06:03:47;;;;;;;10.93;8.77;;;;;;;1.01;57.83;100954.03;5057938;28;20228;-66
2022/01/12 06:06:14;;;;;;;12.03;8.83;;;;;;;1.67;55.73;100967.22;5066190;28;20238;-66
2022/01/12 06:08:40;;;;;;;12.57;8.80;;;;;;;1.13;57.44;100949.91;5064666;28;20227;-66
2022/01/12 06:11:07;;;;;;;12.20;8.20;;;;;;;0.98;58.14;100969.94;5065844;28;20222;-67
2022/01/12 06:13:35;;;;;;;11.80;7.70;;;;;;;1.33;56.98;100972.50;5066130;28;20230;-66
2022/01/12 06:16:02;;;;;;;11.63;9.10;;;;;;;1.34;56.86;100974.19;5066109;28;20215;-66
2022/01/12 06:18:29;;;;;;;12.03;9.73;;;;;;;1.06;57.19;100950.28;5066090;28;20241;-67
2022/01/12 06:20:56;;;;;;;12.87;9.33;;;;;;;0.28;60.12;100926.28;5066157;28;20251;-66
2022/01/12 06:23:23;;;;;;;12.87;9.17;;;;;;;-0.41;62.90;100906.88;5066028;28;20576;-67
2022/01/12 06:25:50;;;;;;;14.03;9.73;;;;;;;0.62;59.58;100972.69;5066127;28;20228;-66
2022/01/12 06:33:47;;;;;;;13.53;9.73;;;;;;;1.21;57.77;100970.50;5065069;28;20249;-66
2022/01/12 06:36:17;;;;;;;12.73;9.27;;;;;;;0.48;60.16;100954.16;5065753;28;20253;-66
2022/01/12 06:38:45;;;;;;;13.93;10.10;;;;;;;0.62;59.35;100955.16;5058179;28;20229;-66
2022/01/12 06:41:13;;;;;;;16.57;9.53;;;;;;;0.77;58.31;100936.91;5048520;28;20226;-66
2022/01/12 06:43:40;;;;;;;13.13;9.83;;;;;;;1.16;57.87;100962.00;5065722;28;20245;-67
2022/01/12 06:46:08;;;;;;;12.80;9.77;;;;;;;1.26;57.37;100952.72;5048696;28;20227;-66
2022/01/12 06:48:36;;;;;;;12.17;9.73;;;;;;;1.55;56.80;100969.59;5047350;28;20232;-66
2022/01/12 06:51:03;;;;;;;12.33;9.07;;;;;;;0.71;59.02;100950.38;5066557;28;20227;-66
2022/01/12 06:53:32;;;;;;;13.03;9.43;;;;;;;-0.60;61.64;100839.59;5065134;28;20222;-66
2022/01/12 06:56:00;;;;;;;12.77;10.20;;;;;;;-1.79;65.80;100776.88;5065925;28;20231;-66
2022/01/12 06:58:27;;;;;;;10.23;8.37;;;;;;;-0.14;61.08;100925.66;5065152;28;20220;-66
2022/01/12 07:00:54;;;;;;;13.40;10.83;;;;;;;-0.16;60.97;100924.91;5061430;28;20220;-66
2022/01/12 07:03:21;;;;;;;17.00;10.23;;;;;;;1.16;57.77;100960.25;5062388;28;20229;-66
2022/01/12 07:05:48;;;;;;;17.50;10.37;;;;;;;1.54;56.76;100957.38;5065599;28;20224;-66
2022/01/12 07:08:15;;;;;;;17.33;11.03;;;;;;;0.95;57.98;100961.38;5046980;28;20219;-66
2022/01/12 07:10:42;;;;;;;13.37;10.33;;;;;;;1.08;57.57;100975.56;5065631;28;20611;-66
2022/01/12 07:13:11;;;;;;;13.70;10.50;;;;;;;1.14;57.57;100990.16;5065676;28;20219;-66
2022/01/12 07:18:12;;;;;;;15.20;10.53;;;;;;;0.74;58.20;100982.59;4961810;28;20232;-67
2022/01/12 07:20:38;;;;;;;13.37;10.30;;;;;;;0.79;57.87;100993.69;4969878;28;21011;-66
2022/01/12 07:23:05;;;;;;;17.57;12.57;;;;;;;0.86;57.91;100999.50;4970994;28;20226;-66
2022/01/12 07:25:32;;;;;;;16.87;12.13;;;;;;;0.69;58.71;100996.84;4971118;28;20229;-68
2022/01/12 07:27:59;;;;;;;16.43;11.67;;;;;;;0.63;58.64;101003.28;4970653;28;20230;-67
2022/01/12 07:30:27;;;;;;;16.77;12.17;;;;;;;0.67;58.01;100996.94;4970641;28;20242;-67
2022/01/12 07:32:54;;;;;;;15.53;10.67;;;;;;;0.93;57.80;101024.53;4970254;28;20226;-68
2022/01/12 07:35:21;;;;;;;15.80;11.73;;;;;;;0.96;57.81;101037.50;4970294;28;20710;-68
2022/01/12 07:37:48;;;;;;;16.27;10.83;;;;;;;0.83;57.95;101037.25;4969970;28;20226;-67
2022/01/12 07:40:15;;;;;;;14.73;10.80;;;;;;;0.53;58.86;101023.03;4969995;28;20228;-67
2022/01/12 07:42:43;;;;;;;16.67;10.67;;;;;;;0.19;59.25;100996.66;4970213;28;20256;-68
2022/01/12 07:45:10;;;;;;;15.73;11.37;;;;;;;0.72;58.43;101041.34;4970643;28;20237;-68
2022/01/12 07:47:37;;;;;;;14.30;10.93;;;;;;;0.65;58.42;101022.41;4970710;28;20237;-68
2022/01/12 07:50:06;;;;;;;15.33;11.37;;;;;;;0.78;57.84;101014.78;4970667;28;20222;-68
2022/01/12 07:52:34;;;;;;;15.07;11.67;;;;;;;0.05;59.81;100976.34;4970220;28;20241;-68
2022/01/12 07:55:01;;;;;;;12.67;10.27;;;;;;;0.73;59.23;101037.81;4969556;28;20228;-68
2022/01/12 07:57:28;;;;;;;17.03;11.40;;;;;;;1.16;58.07;101052.25;4970250;28;20219;-68
2022/01/12 07:59:56;;;;;;;13.80;10.97;;;;;;;0.64;57.71;101004.97;4970159;28;20318;-68
2022/01/12 08:02:23;;;;;;;13.70;10.53;;;;;;;1.31;57.87;101061.09;4969603;28;20229;-67
2022/01/12 08:04:51;;;;;;;15.83;11.07;;;;;;;0.51;60.08;101043.28;4969485;28;20230;-68
2022/01/12 08:07:18;;;;;;;17.97;10.80;;;;;;;1.48;57.26;101056.78;4969012;28;20228;-68
2022/01/12 08:09:45;;;;;;;15.57;11.73;;;;;;;1.36;57.55;101039.84;4970302;28;20742;-68
2022/01/12 08:12:13;;;;;;;14.20;10.73;;;;;;;1.59;56.51;101025.50;4969839;28;20226;-68
2022/01/12 08:14:40;;;;;;;16.60;11.30;;;;;;;1.35;57.96;101051.31;4968138;28;21796;-68
2022/01/12 08:17:07;;;;;;;13.83;10.07;;;;;;;1.05;59.02;101043.22;4969028;28;20599;-68
2022/01/12 08:19:37;;;;;;;15.83;11.03;;;;;;;1.02;57.69;101042.44;4969836;28;20269;-68
2022/01/12 08:22:09;;;;;;;13.03;10.63;;;;;;;0.57;60.59;101064.84;4947631;28;20241;-68
2022/01/12 08:24:41;;;;;;;14.07;10.97;;;;;;;1.70;56.92;101069.63;4966769;28;20246;-68
2022/01/12 08:27:09;;;;;;;14.67;11.00;;;;;;;1.17;58.34;101053.94;4965085;28;20637;-68
2022/01/12 08:29:36;;;;;;;18.43;11.73;;;;;;;0.94;58.64;101054.25;4968386;28;20235;-68
2022/01/12 08:32:04;;;;;;;13.00;10.03;;;;;;;1.39;58.29;101079.97;4969138;28;20232;-68
2022/01/12 08:34:31;;;;;;;15.13;10.83;;;;;;;1.20;58.21;101074.81;4968790;28;20607;-68
2022/01/12 08:36:58;;;;;;;15.10;10.37;;;;;;;1.24;58.35;101087.81;4969560;28;20406;-68
2022/01/12 08:39:27;;;;;;;13.33;9.93;;;;;;;1.74;57.42;101108.03;4969227;28;20229;-68
2022/01/12 08:42:00;;;;;;;14.77;10.47;;;;;;;1.20;57.72;101058.19;4969471;28;20253;-68
2022/01/12 08:44:35;;;;;;;15.03;10.00;;;;;;;0.39;60.71;101053.44;4964492;28;20223;-68
2022/01/12 08:47:05;;;;;;;14.10;10.40;;;;;;;1.75;57.28;101099.16;4964783;28;20701;-68
2022/01/12 08:49:33;;;;;;;12.87;10.47;;;;;;;1.38;59.32;101104.56;4967542;28;20220;-68
2022/01/12 08:52:00;;;;;;;13.53;10.03;;;;;;;1.64;57.97;101109.44;4968008;28;20236;-67
2022/01/12 08:54:27;;;;;;;14.73;11.20;;;;;;;2.37;56.15;101109.84;4968024;28;20223;-67
2022/01/12 08:56:54;;;;;;;13.10;10.37;;;;;;;1.90;57.60;101114.16;4968919;28;20279;-67
2022/01/12 08:59:24;;;;;;;13.27;10.23;;;;;;;1.83;57.41;101091.72;4969405;28;20230;-67
2022/01/12 09:01:51;;;;;;;11.50;10.00;;;;;;;1.47;57.72;101066.44;4968740;28;20633;-68
2022/01/12 09:04:20;;;;;;;11.70;9.30;;;;;;;1.14;60.12;101083.00;4968494;28;20236;-68
2022/01/12 09:06:51;;;;;;;12.80;10.20;;;;;;;2.52;56.07;101116.06;4968944;28;20232;-68
2022/01/12 09:09:18;;;;;;;13.93;10.37;;;;;;;2.10;56.89;101106.97;4969044;28;20232;-68
2022/01/12 09:11:45;;;;;;;13.83;10.70;;;;;;;2.14;56.06;101092.72;4969019;28;20623;-68
2022/01/12 09:14:12;;;;;;;13.97;10.53;;;;;;;2.21;56.07;101101.97;4969025;28;20701;-68
2022/01/12 09:16:39;;;;;;;12.30;10.27;;;;;;;1.64;57.56;101099.75;4968017;28;20623;-68
2022/01/12 09:19:06;;;;;;;14.40;9.83;;;;;;;2.00;57.86;101129.44;4968781;28;20236;-68
2022/01/12 09:21:33;;;;;;;13.53;9.97;;;;;;;2.50;55.65;101102.97;4968749;28;20739;-68
2022/01/12 09:24:00;;;;;;;12.57;10.43;;;;;;;2.60;55.47;101113.84;4968410;28;20504;-68
2022/01/12 09:26:27;;;;;;;13.70;10.20;;;;;;;2.35;55.85;101113.53;4967304;28;20248;-68
2022/01/12 09:28:54;;;;;;;12.90;10.37;;;;;;;2.63;55.53;101136.50;4968688;28;20224;-68
2022/01/12 09:31:22;;;;;;;14.53;9.97;;;;;;;2.44;55.95;101131.44;4968761;28;20236;-68
2022/01/12 09:33:50;;;;;;;13.03;10.83;;;;;;;2.94;54.66;101133.00;4968207;28;20243;-67
2022/01/12 09:36:17;;;;;;;12.73;10.20;;;;;;;2.18;56.69;101103.91;4967813;28;20724;-68
2022/01/12 09:38:44;;;;;;;14.13;10.10;;;;;;;2.38;57.11;101137.91;4966841;28;20224;-68
2022/01/12 09:41:11;;;;;;;10.63;9.10;;;;;;;1.98;58.65;101141.84;4968201;28;20264;-68
2022/01/12 09:43:41;;;;;;;13.33;9.03;;;;;;;2.80;55.89;101156.66;4966851;28;20233;-67
2022/01/12 09:46:09;;;;;;;12.40;9.50;;;;;;;2.06;58.13;101134.41;4968123;28;20231;-67
2022/01/12 09:48:36;;;;;;;13.20;9.43;;;;;;;1.47;60.50;101161.13;4967970;28;20624;-66
2022/01/12 09:51:07;;;;;;;14.67;9.93;;;;;;;1.40;60.09;101133.41;4968147;28;20251;-68
2022/01/12 09:53:37;;;;;;;12.83;9.73;;;;;;;2.36;57.08;101173.13;4967862;28;20733;-68
2022/01/12 09:56:12;;;;;;;11.63;9.70;;;;;;;2.86;56.77;101172.97;4967813;28;20229;-68
2022/01/12 09:58:39;;;;;;;14.47;9.10;;;;;;;1.77;58.12;101139.44;4966583;28;20232;-68
2022/01/12 10:01:05;;;;;;;12.23;9.77;;;;;;;1.94;58.21;101165.69;4967506;28;20239;-68
2022/01/12 10:03:33;;;;;;;12.60;9.63;;;;;;;1.92;57.66;101150.91;4967369;28;20631;-68
2022/01/12 10:06:12;;;;;;;13.93;9.90;;;;;;;1.98;57.76;101149.75;4967416;28;20224;-68
2022/01/12 10:08:39;;;;;;;13.27;9.50;;;;;;;2.33;57.88;101157.53;4966293;28;20612;-67
2022/01/12 10:11:09;;;;;;;15.57;10.20;;;;;;;1.84;57.31;101127.66;4967866;28;20239;-68
2022/01/12 10:13:40;;;;;;;15.33;10.10;;;;;;;1.82;57.13;101141.78;4967121;28;20626;-67
2022/01/12 10:16:15;;;;;;;12.07;9.17;;;;;;;1.94;58.00;101183.28;4967958;28;20236;-68
2022/01/12 10:18:56;;;;;;;11.07;9.70;;;;;;;2.20;57.52;101176.59;4967068;28;20684;-67
2022/01/12 10:21:34;;;;;;;13.17;9.60;;;;;;;1.56;59.25;101165.06;4968046;28;20236;-68
2022/01/12 10:24:11;;;;;;;14.53;10.20;;;;;;;1.37;59.67;101173.00;4966987;28;20232;-67
2022/01/12 10:26:44;;;;;;;13.20;9.40;;;;;;;2.73;56.79;101164.06;4967521;28;20234;-68
2022/01/12 10:29:20;;;;;;;10.87;9.00;;;;;;;2.84;54.97;101169.56;4967694;28;20226;-67
2022/01/12 10:31:55;;;;;;;11.83;9.80;;;;;;;3.01;55.06;101178.31;4967805;28;20255;-68
2022/01/12 10:34:28;;;;;;;10.77;8.80;;;;;;;1.46;56.31;101103.34;4966541;28;20435;-67
2022/01/12 10:36:56;;;;;;;10.17;8.50;;;;;;;2.07;56.71;101176.44;4967565;28;20237;-67
2022/01/12 10:39:26;;;;;;;12.53;8.97;;;;;;;3.01;54.47;101165.97;4967553;28;20230;-67
2022/01/12 10:41:56;;;;;;;12.33;9.17;;;;;;;2.31;56.86;101178.69;4967860;28;20232;-67
2022/01/12 10:44:26;;;;;;;11.43;8.83;;;;;;;1.61;57.79;101142.00;4962667;28;20224;-67
2022/01/12 10:47:16;;;;;;;12.87;9.27;;;;;;;2.63;56.52;101168.13;4966869;28;20233;-67
2022/01/12 10:49:46;;;;;;;11.60;9.83;;;;;;;1.87;57.60;101130.13;4967683;28;20553;-67
2022/01/12 10:52:14;;;;;;;11.70;9.37;;;;;;;2.72;55.65;101177.31;4967464;28;20594;-66
2022/01/12 10:55:11;;;;;;;13.20;9.23;;;;;;;2.19;56.11;101134.56;4966594;28;20610;-67
2022/01/12 10:57:42;;;;;;;11.90;9.57;;;;;;;2.85;55.78;101144.91;4958252;28;20248;-67
2022/01/12 11:03:48;;;;;;;11.37;9.23;;;;;;;1.10;59.16;101202.38;5023511;28;20578;-66
2022/01/12 11:06:16;;;;;;;12.03;8.90;;;;;;;2.32;56.24;101143.50;5003549;28;20235;-66
2022/01/12 11:08:47;;;;;;;11.40;9.33;;;;;;;2.57;55.89;101121.06;5022665;28;20344;-67
2022/01/12 11:11:17;;;;;;;10.83;9.37;;;;;;;1.56;56.28;101076.47;5023625;28;20247;-67
2022/01/12 11:13:46;;;;;;;10.47;9.37;;;;;;;1.80;57.88;101143.66;5022491;28;20223;-67
2022/01/12 11:16:14;;;;;;;11.33;8.90;;;;;;;2.37;55.20;101140.63;5022956;28;20224;-67
2022/01/12 11:18:41;;;;;;;11.87;9.10;;;;;;;3.04;53.45;101135.94;5022136;28;20947;-67
2022/01/12 11:21:18;;;;;;;13.40;9.53;;;;;;;2.87;53.97;101121.09;5023853;28;20551;-66
2022/01/12 11:23:45;;;;;;;11.57;8.27;;;;;;;2.45;56.21;101130.50;5042090;28;20732;-67
2022/01/12 11:26:18;;;;;;;13.27;8.37;;;;;;;1.95;56.41;101142.84;5043171;28;20227;-67
2022/01/12 11:28:47;;;;;;;9.67;8.17;;;;;;;1.78;55.87;101101.66;5042123;28;20697;-66
2022/01/12 11:31:21;;;;;;;10.53;7.47;;;;;;;1.69;55.69;101110.88;5032872;28;20220;-66
2022/01/12 11:33:48;;;;;;;9.90;7.53;;;;;;;1.89;57.12;101119.50;5022657;28;20231;-67
2022/01/12 11:36:38;;;;;;;9.10;7.47;;;;;;;1.77;56.11;101088.56;5021110;28;20606;-65
2022/01/12 11:39:08;;;;;;;11.67;8.00;;;;;;;1.74;55.93;101087.81;5022583;28;20224;-66
2022/01/12 11:41:44;;;;;;;9.30;7.77;;;;;;;1.94;55.23;101078.84;5022695;28;20225;-66
2022/01/12 11:44:22;;;;;;;8.63;7.47;;;;;;;1.57;56.18;101093.97;5022728;28;20813;-66
2022/01/12 11:46:57;;;;;;;9.23;7.57;;;;;;;2.09;55.11;101099.97;5003479;28;20627;-67
2022/01/12 11:49:24;;;;;;;10.63;8.43;;;;;;;1.94;55.01;101094.63;5022563;28;20224;-66
2022/01/12 11:51:51;;;;;;;8.03;7.23;;;;;;;2.49;54.03;101118.84;5020955;28;20232;-66
2022/01/12 11:54:21;;;;;;;8.27;7.00;;;;;;;1.74;55.74;101106.22;5022080;28;20424;-66
2022/01/12 11:57:07;;;;;;;8.00;6.77;;;;;;;0.83;56.91;101068.78;5014404;28;20242;-68
2022/01/12 11:59:53;;;;;;;8.80;7.23;;;;;;;2.19;54.38;101087.16;5022671;28;20228;-66
2022/01/12 12:02:34;;;;;;;9.30;7.80;;;;;;;3.17;52.30;101093.88;5021597;28;20720;-67
2022/01/12 12:05:08;;;;;;;8.73;7.20;;;;;;;2.57;53.83;101126.34;5021851;28;20223;-66
2022/01/12 12:07:50;;;;;;;7.83;6.40;;;;;;;2.23;54.72;101101.88;5022062;28;20224;-66
2022/01/12 12:10:23;;;;;;;9.57;6.47;;;;;;;2.24;54.15;101083.38;5022164;28;20224;-66
2022/01/12 12:12:52;;;;;;;8.73;7.23;;;;;;;2.08;54.80;101104.41;5021564;28;20228;-67
2022/01/12 12:15:21;;;;;;;8.90;6.90;;;;;;;2.92;53.20;101105.03;5008473;28;20224;-67
2022/01/12 12:17:49;;;;;;;8.93;7.10;;;;;;;2.76;53.71;101089.25;5009044;28;20251;-67
2022/01/12 12:20:19;;;;;;;8.50;6.87;;;;;;;2.99;53.42;101135.38;5008487;28;20228;-66
2022/01/12 12:22:48;;;;;;;8.00;7.20;;;;;;;2.94;53.58;101116.34;5000801;28;20698;-66
2022/01/12 12:25:28;;;;;;;7.63;6.50;;;;;;;3.24;53.40;101100.50;5017294;28;20226;-66
2022/01/12 12:27:56;;;;;;;8.53;7.30;;;;;;;2.91;53.17;101088.34;5028880;28;20500;-67
2022/01/12 12:30:25;;;;;;;8.23;6.80;;;;;;;2.43;54.33;101092.88;5022781;28;20252;-66
2022/01/12 12:33:02;;;;;;;8.77;6.87;;;;;;;3.12;52.56;101086.25;5008462;28;20233;-68
2022/01/12 12:35:31;;;;;;;8.97;6.93;;;;;;;3.63;51.89;101107.00;5008079;28;20232;-67
2022/01/12 12:38:02;;;;;;;9.50;7.03;;;;;;;3.59;51.10;101072.03;5008464;28;20225;-66
2022/01/12 12:40:39;;;;;;;9.03;7.17;;;;;;;3.86;51.00;101083.59;5007869;28;20232;-66
2022/01/12 12:43:35;;;;;;;9.70;7.63;;;;;;;3.86;51.81;101067.75;5008392;28;20448;-66
2022/01/12 12:46:09;;;;;;;7.47;6.57;;;;;;;4.19;50.67;101077.97;5008088;28;20229;-66
2022/01/12 12:48:39;;;;;;;8.93;7.27;;;;;;;3.34;52.23;101069.19;5008400;28;20239;-66
2022/01/12 12:51:09;;;;;;;9.40;6.37;;;;;;;1.93;55.23;101068.41;5008331;28;20234;-66
2022/01/12 12:53:38;;;;;;;8.93;6.83;;;;;;;2.78;53.24;101104.03;5007957;28;20231;-66
2022/01/12 12:56:12;;;;;;;8.60;7.10;;;;;;;3.10;52.79;101122.41;5007679;28;20251;-66
2022/01/12 12:58:39;;;;;;;9.63;6.80;;;;;;;3.05;52.67;101106.88;5007216;28;20440;-66
2022/01/12 13:01:08;;;;;;;8.40;6.93;;;;;;;2.79;52.98;101107.53;5008358;28;20235;-66
2022/01/12 13:03:37;;;;;;;8.73;7.27;;;;;;;3.00;52.77;101097.50;5007350;28;20225;-66
2022/01/12 13:06:04;;;;;;;8.57;6.90;;;;;;;2.61;53.47;101099.75;5007868;28;20243;-66
2022/01/12 13:08:31;;;;;;;8.53;7.27;;;;;;;3.64;51.99;101128.94;5007716;28;20596;-66
2022/01/12 13:11:06;;;;;;;9.87;7.97;;;;;;;3.54;52.47;101126.00;5007773;28;20243;-66
2022/01/12 13:13:33;;;;;;;7.97;6.80;;;;;;;2.81;52.20;101081.91;5007258;28;20232;-67
2022/01/12 13:16:01;;;;;;;8.90;7.33;;;;;;;1.90;55.22;101095.75;5007764;28;20229;-67
2022/01/12 13:18:28;;;;;;;9.10;7.83;;;;;;;1.94;54.89;101126.22;5007210;28;20229;-66
2022/01/12 13:21:08;;;;;;;10.60;8.77;;;;;;;3.40;52.58;101122.41;5007806;28;20231;-67
2022/01/12 13:23:40;;;;;;;11.07;7.30;;;;;;;2.17;55.13;101113.59;5007024;28;20232;-66
2022/01/12 13:26:09;;;;;;;10.37;8.47;;;;;;;3.74;52.29;101119.50;5006564;28;20232;-66
2022/01/12 13:28:39;;;;;;;8.83;7.07;;;;;;;3.58;51.86;101119.63;5007314;28;20233;-66
2022/01/12 13:31:09;;;;;;;9.03;8.00;;;;;;;3.85;52.46;101113.59;5007349;28;20224;-66